Time;durP1;ratioP1;P1;durP2;ratioP2;P2;SDS_P1;SDS_P2;PMS_P1;PMS_P2;Temp;Humidity;BMP_temperature;BMP_pressure;BME280_temperature;BME280_humidity;BME280_pressure;Samples;Min_cycle;Max_cycle;Signal;HPM_P1;HPM_P2
2022/10/15 00:00:48;;;;;;;47.08;44.30;;;;;;;16.07;66.21;101865.78;5011533;28;102180;-54
2022/10/15 00:03:15;;;;;;;40.03;37.63;;;;;;;16.07;66.05;101864.97;5009060;28;102366;-55
2022/10/15 00:05:42;;;;;;;36.83;34.58;;;;;;;16.06;66.13;101869.63;5004803;28;104946;-55
2022/10/15 00:08:10;;;;;;;37.72;35.28;;;;;;;16.06;66.21;101857.84;5001495;28;102145;-55
2022/10/15 00:10:37;;;;;;;35.97;33.75;;;;;;;16.07;66.38;101868.53;5011246;28;102679;-55
2022/10/15 00:13:06;;;;;;;35.88;33.60;;;;;;;16.06;66.59;101864.16;5001603;28;102246;-54
2022/10/15 00:15:35;;;;;;;36.07;33.87;;;;;;;16.08;66.43;101861.13;5001561;28;104375;-55
2022/10/15 00:18:02;;;;;;;34.47;32.40;;;;;;;16.07;66.30;101865.78;5013022;28;102443;-55
2022/10/15 00:20:30;;;;;;;38.33;36.03;;;;;;;16.07;66.24;101865.78;5009352;28;102420;-54
2022/10/15 00:22:57;;;;;;;42.20;39.70;;;;;;;16.07;66.23;101859.47;5013726;28;102210;-54
2022/10/15 00:25:23;;;;;;;35.83;33.60;;;;;;;16.07;66.50;101860.28;5010662;28;104257;-55
2022/10/15 00:27:49;;;;;;;34.58;32.58;;;;;;;16.07;66.25;101854.81;5012247;28;102400;-55
2022/10/15 00:30:17;;;;;;;40.95;38.55;;;;;;;16.07;66.39;101860.28;5000091;28;102358;-55
2022/10/15 00:32:44;;;;;;;35.40;33.40;;;;;;;16.06;66.69;101861.41;5015465;28;102244;-55
2022/10/15 00:35:13;;;;;;;43.22;40.80;;;;;;;16.08;66.61;101866.59;5015586;28;103841;-54
2022/10/15 00:37:39;;;;;;;35.65;33.55;;;;;;;16.06;66.39;101864.16;5012785;28;102715;-55
2022/10/15 00:40:08;;;;;;;36.55;34.30;;;;;;;16.06;66.48;101858.66;5016580;28;101994;-54
2022/10/15 00:42:34;;;;;;;37.05;34.78;;;;;;;16.07;66.54;101854.81;5017955;28;102320;-55
2022/10/15 00:45:01;;;;;;;38.90;36.78;;;;;;;16.06;66.65;101869.63;5014768;28;104060;-54
2022/10/15 00:47:36;;;;;;;39.45;37.15;;;;;;;16.07;66.39;101867.72;5016383;28;102380;-54
2022/10/15 00:50:08;;;;;;;38.25;35.97;;;;;;;16.07;66.78;101875.94;5000863;28;102100;-55
2022/10/15 00:52:41;;;;;;;36.85;34.55;;;;;;;16.05;66.47;101857.03;5009204;28;102373;-54
2022/10/15 00:55:13;;;;;;;37.65;35.35;;;;;;;16.06;66.35;101864.16;4998345;28;103954;-54
2022/10/15 00:57:42;;;;;;;36.92;34.80;;;;;;;16.07;66.71;101868.53;5014974;28;102425;-54
2022/10/15 01:00:11;;;;;;;41.15;38.75;;;;;;;16.05;66.52;101862.50;5005552;28;102430;-54
2022/10/15 01:02:40;;;;;;;39.42;37.13;;;;;;;16.07;66.50;101868.53;5016790;28;102548;-54
2022/10/15 01:05:08;;;;;;;36.42;34.22;;;;;;;16.07;66.42;101870.47;5012723;28;103552;-54
2022/10/15 01:07:35;;;;;;;35.15;33.05;;;;;;;16.08;66.82;101872.94;5014632;28;102423;-54
2022/10/15 01:10:04;;;;;;;35.78;33.75;;;;;;;16.07;66.75;101876.78;5010388;28;103675;-54
2022/10/15 01:12:45;;;;;;;38.72;36.58;;;;;;;16.08;66.41;101863.84;5017181;28;102327;-55
2022/10/15 01:15:18;;;;;;;37.83;35.60;;;;;;;16.08;66.83;101861.13;5010791;28;103919;-54
2022/10/15 01:17:54;;;;;;;33.13;31.15;;;;;;;16.08;66.72;101866.59;5017115;28;102053;-55
2022/10/15 01:20:43;;;;;;;34.95;32.80;;;;;;;16.08;66.66;101872.94;5011827;28;102313;-54
2022/10/15 01:23:40;;;;;;;36.20;34.13;;;;;;;16.08;67.11;101861.13;5003509;28;102084;-54
2022/10/15 01:26:25;;;;;;;39.47;37.15;;;;;;;16.10;66.69;101861.66;4981563;28;103975;-54
2022/10/15 01:29:05;;;;;;;39.40;37.20;;;;;;;16.08;66.82;101867.44;5005140;28;102452;-54
2022/10/15 01:31:41;;;;;;;39.27;37.00;;;;;;;16.10;66.93;101859.75;5013737;28;102145;-54
2022/10/15 01:34:17;;;;;;;40.35;38.15;;;;;;;16.09;66.71;101862.78;5014700;28;102071;-54
2022/10/15 01:36:51;;;;;;;36.75;34.47;;;;;;;16.08;67.03;101856.47;5014814;28;108095;-55
2022/10/15 01:39:22;;;;;;;35.15;33.03;;;;;;;16.08;67.00;101861.97;5014789;28;102168;-54
2022/10/15 01:41:53;;;;;;;33.30;31.30;;;;;;;16.09;66.98;101869.09;4980424;28;102281;-54
2022/10/15 01:44:24;;;;;;;39.10;36.70;;;;;;;16.08;66.88;101867.44;4979117;28;102232;-53
2022/10/15 01:46:57;;;;;;;35.80;33.72;;;;;;;16.08;67.21;101861.97;4994522;28;103937;-55
2022/10/15 01:49:29;;;;;;;36.22;34.20;;;;;;;16.08;66.79;101866.59;4992041;28;102128;-54
2022/10/15 01:51:57;;;;;;;39.10;36.85;;;;;;;16.08;66.80;101856.47;4995116;28;102374;-54
2022/10/15 01:54:26;;;;;;;41.92;39.45;;;;;;;16.07;66.56;101854.81;4981352;28;102183;-55
2022/10/15 01:56:54;;;;;;;38.92;36.78;;;;;;;16.07;67.08;101857.53;4992305;28;103963;-54
2022/10/15 01:59:24;;;;;;;36.78;34.55;;;;;;;16.07;66.76;101853.97;4996290;28;102171;-55
2022/10/15 02:01:52;;;;;;;39.63;37.40;;;;;;;16.05;66.85;101862.50;4982880;28;102508;-54
2022/10/15 02:04:20;;;;;;;35.63;33.43;;;;;;;16.07;67.05;101863.03;4977689;28;102545;-54
2022/10/15 02:06:52;;;;;;;42.58;40.17;;;;;;;16.07;66.60;101871.28;4991281;28;103878;-54
2022/10/15 02:09:28;;;;;;;43.13;40.63;;;;;;;16.07;66.81;101860.28;4987453;28;102199;-54
2022/10/15 02:12:06;;;;;;;42.95;40.45;;;;;;;16.07;66.81;101865.78;4995213;28;102345;-55
2022/10/15 02:14:39;;;;;;;40.13;37.80;;;;;;;16.07;66.99;101868.53;4988373;28;102446;-55
2022/10/15 02:17:09;;;;;;;38.97;36.63;;;;;;;16.07;66.79;101863.03;4989730;28;103795;-54
2022/10/15 02:19:42;;;;;;;41.38;38.97;;;;;;;16.07;66.96;101868.53;4995914;28;101929;-55
2022/10/15 02:22:14;;;;;;;43.03;40.63;;;;;;;16.07;66.95;101871.28;4992505;28;102366;-54
2022/10/15 02:24:46;;;;;;;40.90;38.47;;;;;;;16.07;66.79;101871.28;4995660;28;102366;-55
2022/10/15 02:27:15;;;;;;;46.55;43.95;;;;;;;16.09;66.87;101873.75;4993632;28;104194;-55
2022/10/15 02:29:44;;;;;;;41.90;39.65;;;;;;;16.07;66.66;101876.78;4988636;28;101998;-54
2022/10/15 02:32:15;;;;;;;39.15;36.97;;;;;;;16.07;67.03;101871.28;4975733;28;102296;-54
2022/10/15 02:34:45;;;;;;;40.70;38.50;;;;;;;16.08;66.81;101872.09;4979093;28;102125;-54
2022/10/15 02:37:13;;;;;;;44.17;41.67;;;;;;;16.07;67.17;101865.78;4993988;28;104007;-55
2022/10/15 02:39:40;;;;;;;38.80;36.58;;;;;;;16.08;66.90;101866.59;4995156;28;102250;-55
2022/10/15 02:42:07;;;;;;;42.38;40.10;;;;;;;16.09;67.09;101869.09;5010598;28;102418;-54
2022/10/15 02:44:35;;;;;;;43.08;40.25;;;;;;;16.07;66.97;101865.78;5016666;28;102370;-54
2022/10/15 02:47:02;;;;;;;38.28;36.13;;;;;;;16.07;67.33;101871.28;5014438;28;104047;-55
2022/10/15 02:49:30;;;;;;;43.45;40.95;;;;;;;16.06;67.31;101869.63;5013465;28;102716;-54
2022/10/15 02:51:56;;;;;;;45.35;42.75;;;;;;;16.06;67.32;101864.16;5012346;28;102282;-55
2022/10/15 02:54:23;;;;;;;44.00;41.53;;;;;;;16.07;67.05;101868.53;5016561;28;102161;-55
2022/10/15 02:56:49;;;;;;;38.63;36.40;;;;;;;16.07;67.28;101870.47;5010883;28;104962;-55
2022/10/15 02:59:18;;;;;;;41.90;39.50;;;;;;;16.05;67.25;101862.50;5013919;28;102302;-54
2022/10/15 03:01:45;;;;;;;41.90;39.60;;;;;;;16.05;67.36;101870.75;5014023;28;102513;-55
2022/10/15 03:04:12;;;;;;;45.60;43.20;;;;;;;16.05;66.84;101857.03;5014570;28;102557;-54
2022/10/15 03:06:44;;;;;;;42.67;40.22;;;;;;;16.04;67.18;101871.84;5013158;28;104059;-54
2022/10/15 03:09:10;;;;;;;38.83;36.55;;;;;;;16.05;66.96;101868.00;5013020;28;102364;-55
2022/10/15 03:11:37;;;;;;;45.83;43.15;;;;;;;16.05;66.65;101865.25;5011762;28;101994;-55
2022/10/15 03:14:03;;;;;;;42.03;39.63;;;;;;;16.04;66.86;101866.34;5008368;28;102588;-55
2022/10/15 03:16:32;;;;;;;41.50;39.00;;;;;;;16.05;66.97;101859.78;5014168;28;104093;-56
2022/10/15 03:18:59;;;;;;;41.92;39.53;;;;;;;16.04;66.96;101860.84;5014782;28;102514;-54
2022/10/15 03:21:29;;;;;;;;;;;;;;;16.04;66.99;101866.34;5011093;28;102266;-55
2022/10/15 03:23:57;;;;;;;37.40;35.33;;;;;;;16.03;66.96;101853.72;5007027;28;102104;-55
2022/10/15 03:26:24;;;;;;;38.07;35.87;;;;;;;16.04;67.20;101849.88;5013291;28;103695;-55
2022/10/15 03:28:51;;;;;;;40.97;38.75;;;;;;;16.05;66.92;101859.78;5002684;28;102375;-54
2022/10/15 03:31:18;;;;;;;39.53;37.22;;;;;;;16.04;67.26;101849.88;5008601;28;104781;-54
2022/10/15 03:33:44;;;;;;;41.47;39.10;;;;;;;16.04;67.30;101854.53;5014675;28;102390;-55
2022/10/15 03:36:11;;;;;;;41.15;38.92;;;;;;;16.03;67.14;101850.97;5005302;28;104198;-54
2022/10/15 03:38:37;;;;;;;39.90;37.80;;;;;;;16.03;66.78;101842.75;5013665;28;102490;-54
2022/10/15 03:41:06;;;;;;;40.47;38.30;;;;;;;16.05;67.00;101848.78;5013203;28;101927;-55
2022/10/15 03:43:32;;;;;;;43.42;40.95;;;;;;;16.04;67.35;101854.53;5015021;28;102435;-54
2022/10/15 03:46:01;;;;;;;39.67;37.42;;;;;;;16.03;67.25;101850.97;5012538;28;104260;-55
2022/10/15 03:48:28;;;;;;;42.90;40.47;;;;;;;16.03;66.79;101861.97;5014624;28;102056;-55
2022/10/15 03:50:54;;;;;;;42.70;40.35;;;;;;;16.04;66.96;101857.28;5012910;28;102230;-54
2022/10/15 03:53:21;;;;;;;44.83;42.28;;;;;;;16.04;67.12;101855.34;5010953;28;102028;-54
2022/10/15 03:55:47;;;;;;;38.67;36.63;;;;;;;16.04;67.10;101849.06;5010181;28;104040;-55
2022/10/15 03:58:15;;;;;;;42.08;39.75;;;;;;;16.03;66.88;101856.47;5012855;28;102377;-55
2022/10/15 04:00:43;;;;;;;42.67;40.43;;;;;;;16.03;67.13;101859.22;5016750;28;102232;-55
2022/10/15 04:03:10;;;;;;;41.05;38.85;;;;;;;16.03;67.30;101859.22;5013674;28;102262;-54
2022/10/15 04:05:37;;;;;;;42.67;40.38;;;;;;;16.04;66.78;101854.53;5015903;28;104154;-55
2022/10/15 04:08:04;;;;;;;44.25;41.83;;;;;;;16.02;67.34;101848.53;5017317;28;102460;-55
2022/10/15 04:10:30;;;;;;;42.38;40.08;;;;;;;16.03;67.20;101850.16;5008699;28;102009;-54
2022/10/15 04:12:57;;;;;;;40.03;37.85;;;;;;;16.01;66.85;101849.59;5012030;28;102144;-55
2022/10/15 04:15:26;;;;;;;44.45;41.92;;;;;;;16.01;66.85;101855.94;5010611;28;103840;-55
2022/10/15 04:17:54;;;;;;;45.38;42.92;;;;;;;16.01;66.81;101858.69;5016520;28;102381;-55
2022/10/15 04:20:21;;;;;;;41.58;39.28;;;;;;;16.03;67.18;101863.88;5016192;28;102284;-54
2022/10/15 04:22:47;;;;;;;43.50;41.17;;;;;;;16.01;66.71;101857.84;5014699;28;102724;-55
2022/10/15 04:25:15;;;;;;;40.15;37.83;;;;;;;16.01;66.82;101861.44;5014131;28;104004;-55
2022/10/15 04:27:42;;;;;;;44.78;42.28;;;;;;;16.01;66.76;101860.59;5017065;28;103688;-54
2022/10/15 04:30:10;;;;;;;42.40;40.05;;;;;;;16.02;67.27;101865.00;5000513;28;102567;-54
2022/10/15 04:32:38;;;;;;;40.03;37.80;;;;;;;16.00;66.95;101859.78;4993576;28;102191;-54
2022/10/15 04:35:05;;;;;;;46.43;43.93;;;;;;;16.00;67.23;101859.78;4990657;28;103845;-54
2022/10/15 04:37:32;;;;;;;41.97;39.60;;;;;;;16.00;67.20;101862.50;4992680;28;102329;-54
2022/10/15 04:39:59;;;;;;;44.20;41.72;;;;;;;15.99;67.14;101858.13;4990504;28;102134;-54
2022/10/15 04:42:28;;;;;;;45.75;43.30;;;;;;;16.00;67.41;101864.44;4985006;28;102232;-55
2022/10/15 04:44:54;;;;;;;40.92;38.40;;;;;;;15.99;66.86;101866.38;4983171;28;104134;-54
2022/10/15 04:47:21;;;;;;;40.78;38.40;;;;;;;15.99;67.07;101866.38;4993777;28;102672;-54
2022/10/15 04:49:50;;;;;;;41.83;39.53;;;;;;;16.00;67.13;101864.44;4982387;28;102258;-54
2022/10/15 04:52:17;;;;;;;39.05;36.92;;;;;;;16.00;66.91;101870.75;4994005;28;102462;-54
2022/10/15 04:54:44;;;;;;;43.88;41.50;;;;;;;16.00;67.25;101870.75;4985177;28;103909;-54
2022/10/15 04:57:11;;;;;;;43.35;40.92;;;;;;;16.00;66.86;101876.25;4995335;28;102381;-54
2022/10/15 04:59:37;;;;;;;46.78;44.20;;;;;;;16.00;67.14;101876.25;4990262;28;102376;-54
2022/10/15 05:02:04;;;;;;;42.08;39.78;;;;;;;16.00;67.25;101879.00;4991659;28;102634;-54
2022/10/15 05:04:31;;;;;;;45.40;42.95;;;;;;;16.01;67.07;101877.06;4994490;28;104008;-54
2022/10/15 05:06:59;;;;;;;43.97;41.50;;;;;;;16.02;67.33;101885.03;4994945;28;102436;-55
2022/10/15 05:09:25;;;;;;;43.63;41.28;;;;;;;16.03;67.27;101894.09;4993943;28;102228;-54
2022/10/15 05:11:54;;;;;;;43.75;41.42;;;;;;;16.02;67.09;101887.78;4989821;28;102420;-54
2022/10/15 05:14:20;;;;;;;40.10;37.90;;;;;;;16.03;67.36;101889.41;4988456;28;104020;-54
2022/10/15 05:16:47;;;;;;;36.28;34.20;;;;;;;16.04;67.61;101896.53;4994861;28;102579;-54
2022/10/15 05:19:15;;;;;;;41.92;39.53;;;;;;;16.04;67.70;101898.47;4984746;28;101992;-54
2022/10/15 05:21:42;;;;;;;39.50;37.28;;;;;;;16.05;67.29;101897.41;4994723;28;102552;-54
2022/10/15 05:24:10;;;;;;;41.78;39.40;;;;;;;16.04;67.37;101899.28;4993816;28;103931;-54
2022/10/15 05:26:36;;;;;;;39.15;36.92;;;;;;;16.03;67.53;101897.66;4996110;28;102064;-54
2022/10/15 05:29:03;;;;;;;41.70;39.40;;;;;;;16.03;67.66;101905.91;4986835;28;102050;-54
2022/10/15 05:31:31;;;;;;;41.05;38.78;;;;;;;16.03;67.30;101908.63;4993279;28;102275;-54
2022/10/15 05:33:58;;;;;;;43.13;40.78;;;;;;;16.03;67.35;101914.13;4989279;28;103971;-54
2022/10/15 05:36:27;;;;;;;38.85;36.78;;;;;;;16.03;66.97;101908.63;4991292;28;102535;-54
2022/10/15 05:38:55;;;;;;;44.43;41.87;;;;;;;16.04;66.91;101906.72;4993463;28;102288;-54
2022/10/15 05:41:24;;;;;;;43.33;40.97;;;;;;;16.01;67.23;101899.88;4994407;28;102280;-54
2022/10/15 05:43:53;;;;;;;43.75;41.25;;;;;;;16.03;67.25;101911.38;4989849;28;103906;-54
2022/10/15 05:46:19;;;;;;;;;;;;;;;16.03;67.08;101907.81;4993033;28;102081;-54
2022/10/15 05:48:47;;;;;;;39.00;36.80;;;;;;;16.02;67.47;101907.00;4989918;28;102064;-54
2022/10/15 05:51:13;;;;;;;40.55;38.25;;;;;;;16.01;67.45;101910.84;4990679;28;102243;-54
2022/10/15 05:53:42;;;;;;;41.80;39.50;;;;;;;16.01;67.07;101910.84;4985366;28;103956;-54
2022/10/15 05:56:09;;;;;;;41.75;39.25;;;;;;;16.02;67.33;101918.00;4992174;28;102587;-54
2022/10/15 05:58:37;;;;;;;40.58;38.20;;;;;;;16.01;67.28;101921.84;4986417;28;102257;-54
2022/10/15 06:01:08;;;;;;;44.08;41.70;;;;;;;16.01;67.40;101921.84;4981975;28;102297;-54
2022/10/15 06:03:35;;;;;;;38.88;36.65;;;;;;;16.00;67.57;101931.16;4986662;28;104078;-54
2022/10/15 06:06:02;;;;;;;42.35;40.03;;;;;;;16.01;67.44;101924.59;4991041;28;102652;-54
2022/10/15 06:08:29;;;;;;;44.28;41.78;;;;;;;16.01;67.37;101921.84;4988866;28;102024;-54
2022/10/15 06:11:02;;;;;;;39.75;37.63;;;;;;;16.00;67.22;101925.66;4992251;28;102461;-54
2022/10/15 06:13:29;;;;;;;42.88;40.55;;;;;;;16.00;66.95;101931.16;4993056;28;104084;-54
2022/10/15 06:15:57;;;;;;;41.47;39.05;;;;;;;16.00;67.34;101924.84;4985580;28;102078;-54
2022/10/15 06:18:24;;;;;;;40.97;38.70;;;;;;;16.01;66.92;101921.84;4983721;28;102221;-54
2022/10/15 06:20:53;;;;;;;43.08;40.78;;;;;;;16.00;67.22;101925.66;4996045;28;102365;-54
2022/10/15 06:23:20;;;;;;;44.13;41.78;;;;;;;16.02;66.96;101923.47;4986039;28;103841;-54
2022/10/15 06:25:48;;;;;;;41.50;39.22;;;;;;;16.01;66.92;101934.72;4988455;28;102596;-54
2022/10/15 06:28:15;;;;;;;44.15;41.75;;;;;;;16.01;66.55;101927.34;4979190;28;102494;-54
2022/10/15 06:30:41;;;;;;;45.88;43.22;;;;;;;16.02;65.46;101934.47;4991941;28;102250;-54
2022/10/15 06:33:09;;;;;;;46.03;43.35;;;;;;;16.01;65.65;101935.56;4977547;28;103843;-54
2022/10/15 06:35:36;;;;;;;46.95;44.05;;;;;;;16.01;65.56;101937.47;4986960;28;102587;-56
2022/10/15 06:38:04;;;;;;;42.30;39.75;;;;;;;15.70;62.17;101936.72;4987732;28;102492;-57
2022/10/15 06:40:31;;;;;;;49.78;46.33;;;;;;;15.60;61.98;101932.03;4988776;28;102332;-56
2022/10/15 06:43:03;;;;;;;48.83;44.88;;;;;;;15.47;59.96;101941.63;4984302;28;103942;-56
2022/10/15 06:45:29;;;;;;;46.85;43.63;;;;;;;15.41;59.16;101933.69;4989905;28;102240;-56
2022/10/15 06:47:55;;;;;;;49.42;46.63;;;;;;;15.39;60.03;101933.94;4991341;28;102433;-56
2022/10/15 06:50:24;;;;;;;48.10;44.70;;;;;;;15.38;58.22;101946.00;4983503;28;102132;-56
2022/10/15 06:52:51;;;;;;;49.63;46.27;;;;;;;15.34;58.60;101933.94;4988290;28;103940;-56
2022/10/15 06:55:17;;;;;;;48.80;45.83;;;;;;;15.27;57.56;101949.84;4985350;28;102383;-56
2022/10/15 06:57:47;;;;;;;52.20;48.70;;;;;;;15.31;58.42;101942.72;4983601;28;102699;-56
2022/10/15 07:00:13;;;;;;;46.78;43.60;;;;;;;15.27;56.23;101944.38;4991985;28;102544;-56
2022/10/15 07:02:40;;;;;;;47.60;44.35;;;;;;;15.26;58.14;101943.53;4983190;28;103696;-57
2022/10/15 07:05:08;;;;;;;41.95;38.90;;;;;;;15.21;57.65;101951.75;4986195;28;102461;-57
2022/10/15 07:07:35;;;;;;;49.38;45.80;;;;;;;15.23;57.65;101952.31;4985711;28;102554;-57
2022/10/15 07:10:03;;;;;;;45.22;42.13;;;;;;;15.31;57.00;101950.94;4983923;28;102380;-56
2022/10/15 07:12:30;;;;;;;46.88;43.85;;;;;;;15.31;56.79;101951.75;4987426;28;103868;-57
2022/10/15 07:14:57;;;;;;;42.90;40.03;;;;;;;15.45;57.73;101945.75;4988901;28;104823;-57
2022/10/15 07:17:24;;;;;;;44.72;41.95;;;;;;;15.53;58.21;101953.41;4984793;28;102226;-53
2022/10/15 07:19:51;;;;;;;43.13;39.97;;;;;;;15.54;59.01;101947.69;4984491;28;103157;-54
2022/10/15 07:22:18;;;;;;;40.17;37.58;;;;;;;15.57;58.53;101955.34;4995605;28;107907;-54
2022/10/15 07:24:46;;;;;;;37.17;34.72;;;;;;;15.64;59.07;101946.81;4995295;28;102189;-54
2022/10/15 07:27:13;;;;;;;39.00;36.40;;;;;;;15.67;59.86;101954.53;4992632;28;102775;-54
2022/10/15 07:29:39;;;;;;;41.00;38.55;;;;;;;15.73;59.01;101949.88;4977090;28;103646;-54
2022/10/15 07:32:06;;;;;;;39.10;36.58;;;;;;;15.76;59.19;101949.31;4984883;28;104109;-54
2022/10/15 07:34:33;;;;;;;34.08;32.03;;;;;;;15.78;59.53;101949.88;4995370;28;102217;-54
2022/10/15 07:36:59;;;;;;;33.97;31.52;;;;;;;15.79;59.90;101957.81;4994305;28;102012;-54
2022/10/15 07:39:26;;;;;;;34.15;31.90;;;;;;;15.82;59.20;101951.78;5006152;28;102639;-54
2022/10/15 07:41:54;;;;;;;33.42;30.67;;;;;;;15.85;59.26;101966.88;5002466;28;103952;-54
2022/10/15 07:44:20;;;;;;;31.95;29.77;;;;;;;15.88;58.99;101954.53;5010775;28;102299;-53
2022/10/15 07:46:47;;;;;;;29.75;27.77;;;;;;;15.90;58.57;101963.28;5009971;28;103620;-54
2022/10/15 07:49:15;;;;;;;27.58;25.77;;;;;;;15.95;58.69;101963.31;5009664;28;102278;-54
2022/10/15 07:51:41;;;;;;;25.85;23.92;;;;;;;15.94;58.74;101958.91;5002536;28;104344;-54
2022/10/15 07:54:08;;;;;;;24.50;22.90;;;;;;;15.96;58.87;101963.03;5014854;28;102433;-54
2022/10/15 07:56:34;;;;;;;26.35;24.55;;;;;;;15.97;58.85;101970.16;5007459;28;103765;-54
2022/10/15 07:59:02;;;;;;;27.83;25.92;;;;;;;15.98;58.86;101960.00;5007754;28;102317;-54
2022/10/15 08:01:29;;;;;;;26.40;24.67;;;;;;;16.00;59.06;101969.59;5000321;28;104216;-54
2022/10/15 08:03:55;;;;;;;25.70;23.85;;;;;;;16.03;58.90;101968.22;5009806;28;102538;-54
2022/10/15 08:06:22;;;;;;;22.30;20.70;;;;;;;16.05;58.55;101964.13;5013488;28;102113;-54
2022/10/15 08:08:49;;;;;;;22.10;20.58;;;;;;;16.07;58.73;101972.06;5012779;28;102195;-55
2022/10/15 08:11:17;;;;;;;19.35;17.73;;;;;;;16.08;58.28;101970.94;5013906;28;105228;-54
2022/10/15 08:13:45;;;;;;;20.50;19.00;;;;;;;16.08;58.09;101971.81;5012766;28;102019;-54
2022/10/15 08:16:15;;;;;;;19.60;18.23;;;;;;;16.09;57.80;101973.44;5002383;28;103800;-54
2022/10/15 08:18:42;;;;;;;16.80;15.35;;;;;;;16.12;58.13;101968.47;5004095;28;102329;-54
2022/10/15 08:21:10;;;;;;;16.08;14.88;;;;;;;16.12;57.82;101971.22;5004509;28;104235;-54
2022/10/15 08:23:37;;;;;;;16.30;15.00;;;;;;;16.15;57.93;101987.16;5007648;28;101957;-54
2022/10/15 08:26:04;;;;;;;17.13;16.00;;;;;;;16.16;57.50;101983.31;4994407;28;102144;-54
2022/10/15 08:28:32;;;;;;;15.10;13.82;;;;;;;16.15;58.36;101981.66;5010525;28;103129;-54
2022/10/15 08:31:00;;;;;;;14.03;13.07;;;;;;;16.16;58.00;101975.09;5008262;28;103843;-55
2022/10/15 08:33:28;;;;;;;15.85;14.52;;;;;;;16.16;58.07;101977.81;5013028;28;102014;-54
2022/10/15 08:35:56;;;;;;;14.93;13.52;;;;;;;16.15;57.95;101982.47;5013910;28;102214;-54
2022/10/15 08:38:23;;;;;;;15.57;13.98;;;;;;;16.16;57.47;101983.31;5014098;28;102625;-54
2022/10/15 08:40:53;;;;;;;22.25;11.73;;;;;;;16.18;56.75;101970.13;5002296;28;103907;-55
2022/10/15 08:43:27;;;;;;;21.58;12.00;;;;;;;16.18;57.76;101975.59;5011921;28;102454;-54
2022/10/15 08:45:59;;;;;;;24.08;12.30;;;;;;;16.21;57.52;101975.88;5009161;28;102378;-54
2022/10/15 08:48:31;;;;;;;18.60;11.82;;;;;;;16.22;56.05;101976.69;5016449;28;103989;-54
2022/10/15 08:51:02;;;;;;;15.25;11.25;;;;;;;16.21;56.94;101975.06;5013450;28;103828;-54
2022/10/15 08:53:36;;;;;;;12.38;10.48;;;;;;;16.19;57.19;101977.25;4997590;28;102687;-54
2022/10/15 08:56:11;;;;;;;16.58;12.27;;;;;;;16.19;57.30;101978.09;5003269;28;102602;-54
2022/10/15 08:58:44;;;;;;;15.93;10.68;;;;;;;16.20;57.32;101984.41;5007734;28;102427;-54
2022/10/15 09:01:17;;;;;;;16.23;11.45;;;;;;;16.21;57.19;101975.06;5013579;28;103918;-54
2022/10/15 09:03:56;;;;;;;24.73;12.98;;;;;;;16.19;57.46;101980.00;5017386;28;101885;-54
2022/10/15 09:06:26;;;;;;;15.02;10.98;;;;;;;16.17;57.24;101973.97;5016467;28;102050;-54
2022/10/15 09:09:01;;;;;;;13.45;11.18;;;;;;;16.16;57.73;101977.81;5014831;28;102246;-54
2022/10/15 09:11:39;;;;;;;14.43;10.48;;;;;;;16.15;57.27;101973.41;5006023;28;104744;-54
2022/10/15 09:14:10;;;;;;;12.15;10.75;;;;;;;16.15;57.12;101970.66;4997458;28;102495;-54
2022/10/15 09:16:39;;;;;;;12.60;10.30;;;;;;;16.16;57.30;101972.34;5014545;28;102371;-54
2022/10/15 09:19:14;;;;;;;15.68;10.25;;;;;;;16.17;57.67;101973.97;5004162;28;102502;-54
2022/10/15 09:21:42;;;;;;;11.48;10.45;;;;;;;16.18;57.19;101981.09;5005859;28;103955;-55
2022/10/15 09:24:12;;;;;;;11.77;10.75;;;;;;;16.18;57.40;101970.94;5017454;28;102364;-54
2022/10/15 09:26:56;;;;;;;12.00;10.77;;;;;;;16.16;57.53;101978.66;5007071;28;102520;-55
2022/10/15 09:29:29;;;;;;;13.80;11.23;;;;;;;16.19;56.90;101971.75;5008263;28;102217;-54
2022/10/15 09:32:07;;;;;;;12.00;10.80;;;;;;;16.17;57.08;101982.22;5001820;28;104373;-54
2022/10/15 09:34:42;;;;;;;12.20;10.32;;;;;;;16.15;57.11;101973.41;5005852;28;102483;-54
2022/10/15 09:37:16;;;;;;;10.88;9.90;;;;;;;16.16;57.51;101978.66;5009617;28;102533;-54
2022/10/15 09:40:10;;;;;;;11.50;10.30;;;;;;;16.15;56.73;101981.66;5017905;28;102390;-54
2022/10/15 09:42:40;;;;;;;10.57;9.55;;;;;;;16.14;56.52;101980.00;5002828;28;108036;-54
2022/10/15 09:45:11;;;;;;;10.48;9.45;;;;;;;16.15;57.32;101974.22;5004194;28;102651;-54
2022/10/15 09:47:40;;;;;;;11.27;10.27;;;;;;;16.16;57.23;101972.34;5000301;28;102638;-54
2022/10/15 09:50:11;;;;;;;;;;;;;;;16.15;57.56;101976.16;5012500;28;102186;-54
2022/10/15 09:52:49;;;;;;;16.80;15.60;;;;;;;16.12;57.62;101972.06;5010641;28;104068;-56
2022/10/15 09:55:30;;;;;;;14.82;10.63;;;;;;;16.11;57.27;101970.41;5007179;28;102419;-54
2022/10/15 09:58:00;;;;;;;12.38;10.85;;;;;;;16.09;57.09;101969.88;5011784;28;102573;-54
2022/10/15 10:00:51;;;;;;;10.35;9.35;;;;;;;16.07;55.23;101975.63;5013430;28;102184;-54
2022/10/15 10:03:18;;;;;;;9.93;8.75;;;;;;;16.08;56.36;101977.28;4998698;28;103880;-54
2022/10/15 10:05:47;;;;;;;12.43;8.70;;;;;;;16.08;56.31;101977.28;4996391;28;102323;-54
2022/10/15 10:08:18;;;;;;;;;;;;;;;16.08;57.51;101971.81;4997076;28;102527;-54
2022/10/15 10:10:53;;;;;;;15.00;13.63;;;;;;;16.12;55.14;101976.72;5010799;28;102261;-54
2022/10/15 10:13:24;;;;;;;12.30;9.52;;;;;;;16.07;54.71;101975.63;4995725;28;103923;-54
2022/10/15 10:15:52;;;;;;;10.25;9.23;;;;;;;16.08;57.76;101980.03;4996856;28;102050;-54
2022/10/15 10:18:20;;;;;;;11.05;10.25;;;;;;;16.07;59.11;101970.13;4996502;28;102457;-55
2022/10/15 10:20:59;;;;;;;9.93;9.05;;;;;;;16.06;57.81;101965.75;5007442;28;102449;-55
2022/10/15 10:23:33;;;;;;;11.93;11.02;;;;;;;16.09;58.26;101972.63;5015568;28;104177;-55
2022/10/15 10:26:02;;;;;;;12.95;11.95;;;;;;;16.08;59.91;101971.81;5002205;28;102612;-54
2022/10/15 10:28:32;;;;;;;14.30;13.15;;;;;;;16.06;60.35;101968.50;4991822;28;102384;-54
2022/10/15 10:31:03;;;;;;;14.50;13.48;;;;;;;16.07;60.37;101958.34;4990059;28;102353;-55
2022/10/15 10:33:34;;;;;;;13.95;12.85;;;;;;;16.06;60.62;101965.75;4990940;28;104539;-55
2022/10/15 10:36:05;;;;;;;15.43;14.30;;;;;;;16.06;60.54;101964.94;4994626;28;102161;-54
2022/10/15 10:38:34;;;;;;;14.45;13.18;;;;;;;16.05;60.70;101972.34;4985185;28;102963;-55
2022/10/15 10:41:05;;;;;;;;;;;;;;;16.07;61.01;101964.63;4999631;28;102131;-54
2022/10/15 10:43:34;;;;;;;20.90;19.70;;;;;;;16.07;61.19;101963.81;4995617;28;103877;-55
2022/10/15 10:46:02;;;;;;;;;;;;;;;16.07;60.75;101970.13;5002855;28;102384;-54
2022/10/15 10:48:37;;;;;;;28.05;26.48;;;;;;;16.06;61.33;101967.69;5007376;28;102386;-53
2022/10/15 10:51:08;;;;;;;18.90;17.55;;;;;;;16.06;60.92;101963.00;5010887;28;101940;-54
2022/10/15 10:53:46;;;;;;;15.82;14.70;;;;;;;16.06;61.76;101963.00;5009738;28;104179;-54
2022/10/15 10:56:14;;;;;;;16.88;15.57;;;;;;;16.05;61.82;101961.38;5007969;28;102301;-55
2022/10/15 10:58:41;;;;;;;15.77;14.77;;;;;;;16.04;61.27;101947.91;5001145;28;102538;-55
2022/10/15 11:01:11;;;;;;;17.15;16.02;;;;;;;16.06;61.69;101956.69;4999455;28;102299;-54
2022/10/15 11:03:41;;;;;;;17.70;16.60;;;;;;;16.05;61.55;101949.56;5013828;28;103645;-54
2022/10/15 11:06:32;;;;;;;17.55;16.55;;;;;;;16.06;61.89;101945.72;5004649;28;102741;-55
2022/10/15 11:09:21;;;;;;;18.75;17.55;;;;;;;16.04;61.65;101945.97;4999765;28;102182;-55
2022/10/15 11:12:01;;;;;;;19.10;17.92;;;;;;;16.04;61.79;101943.22;4996629;28;102181;-55
2022/10/15 11:14:37;;;;;;;19.08;17.77;;;;;;;16.03;61.75;101947.06;4995872;28;107880;-54